sensor_id;sensor_type;location;lat;lon;timestamp;P1;durP1;ratioP1;P2;durP2;ratioP2
78027;SDS011;67235;45.638;11.714;2023-08-24T00:00:15;14.73;;;9.30;;
78027;SDS011;67235;45.638;11.714;2023-08-24T00:02:41;14.80;;;9.43;;
78027;SDS011;67235;45.638;11.714;2023-08-24T00:05:07;15.23;;;8.97;;
78027;SDS011;67235;45.638;11.714;2023-08-24T00:07:33;13.20;;;8.77;;
78027;SDS011;67235;45.638;11.714;2023-08-24T00:09:59;15.00;;;9.07;;
78027;SDS011;67235;45.638;11.714;2023-08-24T00:12:25;15.03;;;9.20;;
78027;SDS011;67235;45.638;11.714;2023-08-24T00:14:51;14.85;;;9.40;;
78027;SDS011;67235;45.638;11.714;2023-08-24T00:17:17;15.00;;;9.07;;
78027;SDS011;67235;45.638;11.714;2023-08-24T00:19:43;12.88;;;8.45;;
78027;SDS011;67235;45.638;11.714;2023-08-24T00:22:08;14.57;;;9.23;;
78027;SDS011;67235;45.638;11.714;2023-08-24T00:24:34;16.40;;;8.70;;
78027;SDS011;67235;45.638;11.714;2023-08-24T00:27:00;13.00;;;8.80;;
78027;SDS011;67235;45.638;11.714;2023-08-24T00:29:26;12.95;;;8.80;;
78027;SDS011;67235;45.638;11.714;2023-08-24T00:31:52;15.10;;;9.20;;
78027;SDS011;67235;45.638;11.714;2023-08-24T00:34:17;14.30;;;8.90;;
78027;SDS011;67235;45.638;11.714;2023-08-24T00:36:43;13.68;;;8.73;;
78027;SDS011;67235;45.638;11.714;2023-08-24T00:39:09;14.45;;;8.65;;
78027;SDS011;67235;45.638;11.714;2023-08-24T00:41:36;13.30;;;9.03;;
78027;SDS011;67235;45.638;11.714;2023-08-24T00:44:02;13.50;;;8.88;;
78027;SDS011;67235;45.638;11.714;2023-08-24T00:46:28;14.75;;;8.73;;
78027;SDS011;67235;45.638;11.714;2023-08-24T00:48:54;14.63;;;9.30;;
78027;SDS011;67235;45.638;11.714;2023-08-24T00:51:22;14.33;;;9.33;;
78027;SDS011;67235;45.638;11.714;2023-08-24T00:53:49;15.30;;;9.65;;
78027;SDS011;67235;45.638;11.714;2023-08-24T00:56:15;15.57;;;9.73;;
78027;SDS011;67235;45.638;11.714;2023-08-24T00:58:41;16.30;;;9.43;;
78027;SDS011;67235;45.638;11.714;2023-08-24T01:01:09;14.85;;;9.93;;
78027;SDS011;67235;45.638;11.714;2023-08-24T01:03:35;17.13;;;9.83;;
78027;SDS011;67235;45.638;11.714;2023-08-24T01:06:01;15.48;;;9.82;;
78027;SDS011;67235;45.638;11.714;2023-08-24T01:08:27;14.48;;;10.02;;
78027;SDS011;67235;45.638;11.714;2023-08-24T01:10:58;17.05;;;10.82;;
78027;SDS011;67235;45.638;11.714;2023-08-24T01:13:38;17.13;;;10.60;;
78027;SDS011;67235;45.638;11.714;2023-08-24T01:16:15;17.05;;;10.93;;
78027;SDS011;67235;45.638;11.714;2023-08-24T01:18:44;20.17;;;11.73;;
78027;SDS011;67235;45.638;11.714;2023-08-24T01:21:12;19.17;;;12.18;;
78027;SDS011;67235;45.638;11.714;2023-08-24T01:23:49;17.33;;;11.68;;
78027;SDS011;67235;45.638;11.714;2023-08-24T01:26:34;19.37;;;12.00;;
78027;SDS011;67235;45.638;11.714;2023-08-24T01:29:01;17.17;;;11.07;;
78027;SDS011;67235;45.638;11.714;2023-08-24T01:31:29;19.52;;;11.35;;
78027;SDS011;67235;45.638;11.714;2023-08-24T01:33:55;17.52;;;11.05;;
78027;SDS011;67235;45.638;11.714;2023-08-24T01:36:21;17.73;;;11.63;;
78027;SDS011;67235;45.638;11.714;2023-08-24T01:38:58;17.75;;;11.07;;
78027;SDS011;67235;45.638;11.714;2023-08-24T01:41:37;18.48;;;11.45;;
78027;SDS011;67235;45.638;11.714;2023-08-24T01:44:07;18.08;;;10.45;;
78027;SDS011;67235;45.638;11.714;2023-08-24T01:46:34;16.33;;;10.38;;
78027;SDS011;67235;45.638;11.714;2023-08-24T01:49:02;15.63;;;10.00;;
78027;SDS011;67235;45.638;11.714;2023-08-24T01:51:30;19.17;;;10.73;;
78027;SDS011;67235;45.638;11.714;2023-08-24T01:53:58;17.92;;;10.40;;
78027;SDS011;67235;45.638;11.714;2023-08-24T01:56:24;16.45;;;10.18;;
78027;SDS011;67235;45.638;11.714;2023-08-24T01:58:50;18.70;;;10.70;;
78027;SDS011;67235;45.638;11.714;2023-08-24T02:01:16;15.23;;;10.43;;
78027;SDS011;67235;45.638;11.714;2023-08-24T02:03:42;16.65;;;10.35;;
78027;SDS011;67235;45.638;11.714;2023-08-24T02:06:08;15.47;;;9.83;;
78027;SDS011;67235;45.638;11.714;2023-08-24T02:08:34;16.90;;;9.88;;
78027;SDS011;67235;45.638;11.714;2023-08-24T02:11:00;18.98;;;9.93;;
78027;SDS011;67235;45.638;11.714;2023-08-24T02:13:26;15.93;;;10.63;;
78027;SDS011;67235;45.638;11.714;2023-08-24T02:16:02;18.17;;;10.17;;
78027;SDS011;67235;45.638;11.714;2023-08-24T02:18:29;16.83;;;11.30;;
78027;SDS011;67235;45.638;11.714;2023-08-24T02:20:54;18.50;;;11.55;;
78027;SDS011;67235;45.638;11.714;2023-08-24T02:23:20;16.77;;;11.20;;
78027;SDS011;67235;45.638;11.714;2023-08-24T02:25:46;17.98;;;11.18;;
78027;SDS011;67235;45.638;11.714;2023-08-24T02:28:12;17.58;;;11.40;;
78027;SDS011;67235;45.638;11.714;2023-08-24T02:30:38;18.17;;;10.60;;
78027;SDS011;67235;45.638;11.714;2023-08-24T02:33:04;18.38;;;11.77;;
78027;SDS011;67235;45.638;11.714;2023-08-24T02:35:30;17.52;;;11.15;;
78027;SDS011;67235;45.638;11.714;2023-08-24T02:37:56;20.10;;;12.50;;
78027;SDS011;67235;45.638;11.714;2023-08-24T02:40:23;18.70;;;11.53;;
78027;SDS011;67235;45.638;11.714;2023-08-24T02:42:48;17.52;;;11.50;;
78027;SDS011;67235;45.638;11.714;2023-08-24T02:45:14;17.75;;;11.43;;
78027;SDS011;67235;45.638;11.714;2023-08-24T02:47:40;17.98;;;10.73;;
78027;SDS011;67235;45.638;11.714;2023-08-24T02:50:06;17.33;;;10.73;;
78027;SDS011;67235;45.638;11.714;2023-08-24T02:52:32;19.00;;;11.43;;
78027;SDS011;67235;45.638;11.714;2023-08-24T02:54:58;16.65;;;10.73;;
78027;SDS011;67235;45.638;11.714;2023-08-24T02:57:24;16.53;;;11.10;;
78027;SDS011;67235;45.638;11.714;2023-08-24T02:59:50;18.50;;;11.23;;
78027;SDS011;67235;45.638;11.714;2023-08-24T03:02:16;18.30;;;11.73;;
78027;SDS011;67235;45.638;11.714;2023-08-24T03:04:42;18.20;;;10.83;;
78027;SDS011;67235;45.638;11.714;2023-08-24T03:07:07;18.02;;;11.52;;
78027;SDS011;67235;45.638;11.714;2023-08-24T03:09:35;19.55;;;11.35;;
78027;SDS011;67235;45.638;11.714;2023-08-24T03:12:01;18.07;;;11.10;;
78027;SDS011;67235;45.638;11.714;2023-08-24T03:14:28;18.58;;;10.80;;
78027;SDS011;67235;45.638;11.714;2023-08-24T03:16:54;21.45;;;11.27;;
78027;SDS011;67235;45.638;11.714;2023-08-24T03:19:20;23.35;;;11.88;;
78027;SDS011;67235;45.638;11.714;2023-08-24T03:21:46;19.17;;;11.67;;
78027;SDS011;67235;45.638;11.714;2023-08-24T03:24:11;18.65;;;11.35;;
78027;SDS011;67235;45.638;11.714;2023-08-24T03:26:37;19.53;;;11.93;;
78027;SDS011;67235;45.638;11.714;2023-08-24T03:29:03;19.05;;;11.68;;
78027;SDS011;67235;45.638;11.714;2023-08-24T03:31:29;18.88;;;11.30;;
78027;SDS011;67235;45.638;11.714;2023-08-24T03:33:55;17.87;;;10.93;;
78027;SDS011;67235;45.638;11.714;2023-08-24T03:36:20;17.20;;;10.27;;
78027;SDS011;67235;45.638;11.714;2023-08-24T03:38:47;17.58;;;10.50;;
78027;SDS011;67235;45.638;11.714;2023-08-24T03:41:12;18.93;;;10.67;;
78027;SDS011;67235;45.638;11.714;2023-08-24T03:43:38;16.15;;;9.80;;
78027;SDS011;67235;45.638;11.714;2023-08-24T03:46:04;16.40;;;10.33;;
78027;SDS011;67235;45.638;11.714;2023-08-24T03:48:31;20.45;;;11.05;;
78027;SDS011;67235;45.638;11.714;2023-08-24T03:50:57;20.40;;;11.32;;
78027;SDS011;67235;45.638;11.714;2023-08-24T03:53:24;20.23;;;12.35;;
78027;SDS011;67235;45.638;11.714;2023-08-24T03:55:50;21.75;;;13.18;;
78027;SDS011;67235;45.638;11.714;2023-08-24T03:58:17;23.03;;;13.13;;
78027;SDS011;67235;45.638;11.714;2023-08-24T04:00:43;22.13;;;14.00;;
78027;SDS011;67235;45.638;11.714;2023-08-24T04:03:10;23.77;;;14.40;;
78027;SDS011;67235;45.638;11.714;2023-08-24T04:05:36;24.92;;;15.65;;
78027;SDS011;67235;45.638;11.714;2023-08-24T04:08:02;23.30;;;14.53;;
78027;SDS011;67235;45.638;11.714;2023-08-24T04:10:29;23.92;;;15.38;;
78027;SDS011;67235;45.638;11.714;2023-08-24T04:12:55;25.30;;;15.40;;
78027;SDS011;67235;45.638;11.714;2023-08-24T04:15:21;23.50;;;14.75;;
78027;SDS011;67235;45.638;11.714;2023-08-24T04:17:47;25.48;;;14.90;;
78027;SDS011;67235;45.638;11.714;2023-08-24T04:20:14;22.40;;;14.77;;
78027;SDS011;67235;45.638;11.714;2023-08-24T04:22:41;24.63;;;15.13;;
78027;SDS011;67235;45.638;11.714;2023-08-24T04:25:07;25.55;;;15.68;;
78027;SDS011;67235;45.638;11.714;2023-08-24T04:27:34;24.60;;;14.80;;
78027;SDS011;67235;45.638;11.714;2023-08-24T04:30:00;22.23;;;14.38;;
78027;SDS011;67235;45.638;11.714;2023-08-24T04:32:27;22.03;;;13.57;;
78027;SDS011;67235;45.638;11.714;2023-08-24T04:34:53;22.90;;;13.98;;
78027;SDS011;67235;45.638;11.714;2023-08-24T04:37:19;21.83;;;13.50;;
78027;SDS011;67235;45.638;11.714;2023-08-24T04:39:45;25.27;;;15.20;;
78027;SDS011;67235;45.638;11.714;2023-08-24T04:42:11;23.93;;;15.30;;
78027;SDS011;67235;45.638;11.714;2023-08-24T04:44:37;25.20;;;15.30;;
78027;SDS011;67235;45.638;11.714;2023-08-24T04:47:03;22.75;;;14.50;;
78027;SDS011;67235;45.638;11.714;2023-08-24T04:49:32;21.83;;;13.60;;
78027;SDS011;67235;45.638;11.714;2023-08-24T04:51:57;21.83;;;13.95;;
78027;SDS011;67235;45.638;11.714;2023-08-24T04:54:23;21.65;;;14.43;;
78027;SDS011;67235;45.638;11.714;2023-08-24T04:56:49;24.00;;;14.70;;
78027;SDS011;67235;45.638;11.714;2023-08-24T04:59:15;22.58;;;14.70;;
78027;SDS011;67235;45.638;11.714;2023-08-24T05:01:41;23.63;;;13.82;;
78027;SDS011;67235;45.638;11.714;2023-08-24T05:04:07;20.20;;;13.73;;
78027;SDS011;67235;45.638;11.714;2023-08-24T05:06:33;21.10;;;13.82;;
78027;SDS011;67235;45.638;11.714;2023-08-24T05:08:59;20.88;;;13.60;;
78027;SDS011;67235;45.638;11.714;2023-08-24T05:11:26;20.23;;;13.40;;
78027;SDS011;67235;45.638;11.714;2023-08-24T05:13:54;19.63;;;12.55;;
78027;SDS011;67235;45.638;11.714;2023-08-24T05:16:21;18.05;;;12.13;;
78027;SDS011;67235;45.638;11.714;2023-08-24T05:18:47;19.17;;;12.02;;
78027;SDS011;67235;45.638;11.714;2023-08-24T05:21:13;18.57;;;12.17;;
78027;SDS011;67235;45.638;11.714;2023-08-24T05:23:39;19.38;;;12.88;;
78027;SDS011;67235;45.638;11.714;2023-08-24T05:26:05;20.17;;;12.80;;
78027;SDS011;67235;45.638;11.714;2023-08-24T05:28:31;19.13;;;12.43;;
78027;SDS011;67235;45.638;11.714;2023-08-24T05:30:57;17.43;;;12.00;;
78027;SDS011;67235;45.638;11.714;2023-08-24T05:33:24;18.15;;;11.02;;
78027;SDS011;67235;45.638;11.714;2023-08-24T05:35:51;17.00;;;11.68;;
78027;SDS011;67235;45.638;11.714;2023-08-24T05:38:17;17.35;;;11.95;;
78027;SDS011;67235;45.638;11.714;2023-08-24T05:40:45;16.38;;;10.98;;
78027;SDS011;67235;45.638;11.714;2023-08-24T05:43:12;17.33;;;11.13;;
78027;SDS011;67235;45.638;11.714;2023-08-24T05:45:39;15.50;;;11.00;;
78027;SDS011;67235;45.638;11.714;2023-08-24T05:48:06;18.73;;;11.80;;
78027;SDS011;67235;45.638;11.714;2023-08-24T05:50:32;15.52;;;11.15;;
78027;SDS011;67235;45.638;11.714;2023-08-24T05:52:59;14.52;;;9.95;;
78027;SDS011;67235;45.638;11.714;2023-08-24T05:55:24;13.87;;;9.27;;
78027;SDS011;67235;45.638;11.714;2023-08-24T05:57:50;16.50;;;10.10;;
78027;SDS011;67235;45.638;11.714;2023-08-24T06:00:16;14.57;;;10.23;;
78027;SDS011;67235;45.638;11.714;2023-08-24T06:02:43;14.27;;;10.07;;
78027;SDS011;67235;45.638;11.714;2023-08-24T06:05:08;14.55;;;9.90;;
78027;SDS011;67235;45.638;11.714;2023-08-24T06:07:36;12.43;;;8.68;;
78027;SDS011;67235;45.638;11.714;2023-08-24T06:10:02;16.00;;;9.65;;
78027;SDS011;67235;45.638;11.714;2023-08-24T06:12:28;13.68;;;9.65;;
78027;SDS011;67235;45.638;11.714;2023-08-24T06:14:54;15.07;;;9.03;;
78027;SDS011;67235;45.638;11.714;2023-08-24T06:17:20;11.55;;;8.18;;
78027;SDS011;67235;45.638;11.714;2023-08-24T06:19:46;12.50;;;8.30;;
78027;SDS011;67235;45.638;11.714;2023-08-24T06:22:11;12.13;;;8.10;;
78027;SDS011;67235;45.638;11.714;2023-08-24T06:24:38;11.95;;;7.85;;
78027;SDS011;67235;45.638;11.714;2023-08-24T06:27:05;9.90;;;7.82;;
78027;SDS011;67235;45.638;11.714;2023-08-24T06:29:32;12.63;;;7.70;;
78027;SDS011;67235;45.638;11.714;2023-08-24T06:32:00;11.35;;;7.78;;
78027;SDS011;67235;45.638;11.714;2023-08-24T06:34:26;10.10;;;7.97;;
78027;SDS011;67235;45.638;11.714;2023-08-24T06:36:54;11.52;;;7.47;;
78027;SDS011;67235;45.638;11.714;2023-08-24T06:39:21;10.73;;;7.30;;
78027;SDS011;67235;45.638;11.714;2023-08-24T06:41:50;10.17;;;7.47;;
78027;SDS011;67235;45.638;11.714;2023-08-24T06:44:17;11.18;;;7.65;;
78027;SDS011;67235;45.638;11.714;2023-08-24T06:46:44;10.93;;;7.50;;
78027;SDS011;67235;45.638;11.714;2023-08-24T06:49:11;10.90;;;7.68;;
78027;SDS011;67235;45.638;11.714;2023-08-24T06:51:37;10.43;;;7.30;;
78027;SDS011;67235;45.638;11.714;2023-08-24T06:54:04;10.73;;;7.18;;
78027;SDS011;67235;45.638;11.714;2023-08-24T06:56:30;9.40;;;7.03;;
78027;SDS011;67235;45.638;11.714;2023-08-24T06:58:57;9.65;;;7.55;;
78027;SDS011;67235;45.638;11.714;2023-08-24T07:01:26;11.85;;;7.78;;
78027;SDS011;67235;45.638;11.714;2023-08-24T07:03:52;11.60;;;7.90;;
78027;SDS011;67235;45.638;11.714;2023-08-24T07:06:18;10.60;;;8.05;;
78027;SDS011;67235;45.638;11.714;2023-08-24T07:08:45;11.70;;;8.75;;
78027;SDS011;67235;45.638;11.714;2023-08-24T07:11:11;14.07;;;9.15;;
78027;SDS011;67235;45.638;11.714;2023-08-24T07:13:39;13.52;;;10.13;;
78027;SDS011;67235;45.638;11.714;2023-08-24T07:16:05;13.10;;;9.77;;
78027;SDS011;67235;45.638;11.714;2023-08-24T07:18:34;13.32;;;9.82;;
78027;SDS011;67235;45.638;11.714;2023-08-24T07:21:05;12.73;;;9.55;;
78027;SDS011;67235;45.638;11.714;2023-08-24T07:23:31;14.95;;;10.30;;
78027;SDS011;67235;45.638;11.714;2023-08-24T07:26:01;12.48;;;8.35;;
78027;SDS011;67235;45.638;11.714;2023-08-24T07:28:27;10.77;;;7.67;;
78027;SDS011;67235;45.638;11.714;2023-08-24T07:30:53;9.75;;;7.45;;
78027;SDS011;67235;45.638;11.714;2023-08-24T07:33:23;11.40;;;7.15;;
78027;SDS011;67235;45.638;11.714;2023-08-24T07:35:50;9.52;;;6.85;;
78027;SDS011;67235;45.638;11.714;2023-08-24T07:38:17;9.27;;;6.70;;
78027;SDS011;67235;45.638;11.714;2023-08-24T07:40:43;9.93;;;6.70;;
78027;SDS011;67235;45.638;11.714;2023-08-24T07:43:08;9.48;;;6.82;;
78027;SDS011;67235;45.638;11.714;2023-08-24T07:45:34;9.57;;;7.00;;
78027;SDS011;67235;45.638;11.714;2023-08-24T07:48:00;10.73;;;6.68;;
78027;SDS011;67235;45.638;11.714;2023-08-24T07:50:26;9.68;;;6.63;;
78027;SDS011;67235;45.638;11.714;2023-08-24T07:52:52;8.97;;;6.23;;
78027;SDS011;67235;45.638;11.714;2023-08-24T07:55:18;9.77;;;7.47;;
78027;SDS011;67235;45.638;11.714;2023-08-24T07:57:43;8.75;;;7.03;;
78027;SDS011;67235;45.638;11.714;2023-08-24T08:00:10;10.40;;;6.57;;
78027;SDS011;67235;45.638;11.714;2023-08-24T08:02:36;8.05;;;6.47;;
78027;SDS011;67235;45.638;11.714;2023-08-24T08:05:02;9.80;;;6.57;;
78027;SDS011;67235;45.638;11.714;2023-08-24T08:07:28;10.50;;;7.25;;
78027;SDS011;67235;45.638;11.714;2023-08-24T08:09:54;11.87;;;6.60;;
78027;SDS011;67235;45.638;11.714;2023-08-24T08:12:21;10.23;;;7.00;;
78027;SDS011;67235;45.638;11.714;2023-08-24T08:14:47;9.57;;;6.70;;
78027;SDS011;67235;45.638;11.714;2023-08-24T08:17:13;12.07;;;6.67;;
78027;SDS011;67235;45.638;11.714;2023-08-24T08:19:39;9.97;;;7.13;;
78027;SDS011;67235;45.638;11.714;2023-08-24T08:22:05;10.27;;;6.50;;
78027;SDS011;67235;45.638;11.714;2023-08-24T08:24:31;9.53;;;6.50;;
78027;SDS011;67235;45.638;11.714;2023-08-24T08:26:56;10.55;;;7.05;;
78027;SDS011;67235;45.638;11.714;2023-08-24T08:29:22;8.98;;;7.00;;
78027;SDS011;67235;45.638;11.714;2023-08-24T08:31:48;9.25;;;6.50;;
78027;SDS011;67235;45.638;11.714;2023-08-24T08:34:14;8.50;;;6.80;;
78027;SDS011;67235;45.638;11.714;2023-08-24T08:36:40;9.15;;;6.57;;
78027;SDS011;67235;45.638;11.714;2023-08-24T08:39:06;10.10;;;6.45;;
78027;SDS011;67235;45.638;11.714;2023-08-24T08:41:33;8.50;;;6.35;;
78027;SDS011;67235;45.638;11.714;2023-08-24T08:44:05;10.73;;;6.63;;
78027;SDS011;67235;45.638;11.714;2023-08-24T08:46:35;8.70;;;6.28;;
78027;SDS011;67235;45.638;11.714;2023-08-24T08:49:00;9.30;;;6.30;;
78027;SDS011;67235;45.638;11.714;2023-08-24T08:51:28;8.77;;;6.30;;
78027;SDS011;67235;45.638;11.714;2023-08-24T08:53:55;9.05;;;6.97;;
78027;SDS011;67235;45.638;11.714;2023-08-24T08:56:21;7.80;;;5.67;;
78027;SDS011;67235;45.638;11.714;2023-08-24T08:58:47;9.55;;;5.85;;
78027;SDS011;67235;45.638;11.714;2023-08-24T09:01:15;8.70;;;6.13;;
78027;SDS011;67235;45.638;11.714;2023-08-24T09:03:42;7.82;;;6.13;;
78027;SDS011;67235;45.638;11.714;2023-08-24T09:06:09;7.80;;;6.00;;
78027;SDS011;67235;45.638;11.714;2023-08-24T09:08:35;8.48;;;6.30;;
78027;SDS011;67235;45.638;11.714;2023-08-24T09:11:02;9.43;;;6.93;;
78027;SDS011;67235;45.638;11.714;2023-08-24T09:13:28;8.30;;;6.57;;
78027;SDS011;67235;45.638;11.714;2023-08-24T09:16:02;9.50;;;6.07;;
78027;SDS011;67235;45.638;11.714;2023-08-24T09:18:37;9.13;;;6.23;;
78027;SDS011;67235;45.638;11.714;2023-08-24T09:21:10;8.57;;;6.10;;
78027;SDS011;67235;45.638;11.714;2023-08-24T09:23:42;8.43;;;6.40;;
78027;SDS011;67235;45.638;11.714;2023-08-24T09:26:12;12.48;;;6.13;;
78027;SDS011;67235;45.638;11.714;2023-08-24T09:28:38;8.97;;;6.43;;
78027;SDS011;67235;45.638;11.714;2023-08-24T09:31:07;10.23;;;6.60;;
78027;SDS011;67235;45.638;11.714;2023-08-24T09:33:33;8.43;;;6.43;;
78027;SDS011;67235;45.638;11.714;2023-08-24T09:36:00;10.05;;;6.70;;
78027;SDS011;67235;45.638;11.714;2023-08-24T09:38:31;11.23;;;6.20;;
78027;SDS011;67235;45.638;11.714;2023-08-24T09:40:57;9.37;;;6.93;;
78027;SDS011;67235;45.638;11.714;2023-08-24T09:43:23;8.93;;;6.25;;
78027;SDS011;67235;45.638;11.714;2023-08-24T09:48:18;8.45;;;6.00;;
78027;SDS011;67235;45.638;11.714;2023-08-24T09:50:45;9.10;;;6.57;;
78027;SDS011;67235;45.638;11.714;2023-08-24T09:53:16;8.82;;;6.55;;
78027;SDS011;67235;45.638;11.714;2023-08-24T09:58:25;8.73;;;6.60;;
78027;SDS011;67235;45.638;11.714;2023-08-24T10:00:52;9.40;;;6.45;;
78027;SDS011;67235;45.638;11.714;2023-08-24T10:03:18;10.33;;;6.50;;
78027;SDS011;67235;45.638;11.714;2023-08-24T10:05:52;16.67;;;8.10;;
78027;SDS011;67235;45.638;11.714;2023-08-24T10:08:24;9.80;;;6.82;;
78027;SDS011;67235;45.638;11.714;2023-08-24T10:11:02;8.50;;;6.60;;
78027;SDS011;67235;45.638;11.714;2023-08-24T10:13:49;11.73;;;7.00;;
78027;SDS011;67235;45.638;11.714;2023-08-24T10:16:23;16.40;;;7.67;;
78027;SDS011;67235;45.638;11.714;2023-08-24T10:18:52;11.30;;;6.47;;
78027;SDS011;67235;45.638;11.714;2023-08-24T10:21:18;8.77;;;6.85;;
78027;SDS011;67235;45.638;11.714;2023-08-24T10:23:45;9.60;;;6.40;;
78027;SDS011;67235;45.638;11.714;2023-08-24T10:26:12;8.10;;;6.10;;
78027;SDS011;67235;45.638;11.714;2023-08-24T10:28:39;9.00;;;6.53;;
78027;SDS011;67235;45.638;11.714;2023-08-24T10:31:05;8.75;;;6.30;;
78027;SDS011;67235;45.638;11.714;2023-08-24T10:33:32;8.52;;;6.35;;
78027;SDS011;67235;45.638;11.714;2023-08-24T10:35:59;9.80;;;5.95;;
78027;SDS011;67235;45.638;11.714;2023-08-24T10:38:26;8.90;;;6.22;;
78027;SDS011;67235;45.638;11.714;2023-08-24T10:40:54;8.60;;;6.10;;
78027;SDS011;67235;45.638;11.714;2023-08-24T10:43:39;9.65;;;6.90;;
78027;SDS011;67235;45.638;11.714;2023-08-24T10:46:12;9.65;;;6.43;;
78027;SDS011;67235;45.638;11.714;2023-08-24T10:53:59;10.37;;;6.20;;
78027;SDS011;67235;45.638;11.714;2023-08-24T10:56:38;8.30;;;6.30;;
78027;SDS011;67235;45.638;11.714;2023-08-24T10:59:11;10.05;;;7.03;;
78027;SDS011;67235;45.638;11.714;2023-08-24T11:01:42;9.75;;;6.32;;
78027;SDS011;67235;45.638;11.714;2023-08-24T11:04:20;8.20;;;6.40;;
78027;SDS011;67235;45.638;11.714;2023-08-24T11:09:19;9.75;;;6.50;;
78027;SDS011;67235;45.638;11.714;2023-08-24T11:12:01;9.38;;;6.80;;
78027;SDS011;67235;45.638;11.714;2023-08-24T11:14:30;9.82;;;6.22;;
78027;SDS011;67235;45.638;11.714;2023-08-24T11:17:00;10.48;;;7.20;;
78027;SDS011;67235;45.638;11.714;2023-08-24T11:19:49;11.07;;;7.27;;
78027;SDS011;67235;45.638;11.714;2023-08-24T11:22:21;10.40;;;6.90;;
78027;SDS011;67235;45.638;11.714;2023-08-24T11:24:48;9.40;;;7.13;;
78027;SDS011;67235;45.638;11.714;2023-08-24T11:27:14;8.95;;;6.68;;
78027;SDS011;67235;45.638;11.714;2023-08-24T11:29:41;8.45;;;6.55;;
78027;SDS011;67235;45.638;11.714;2023-08-24T11:32:07;9.53;;;6.60;;
78027;SDS011;67235;45.638;11.714;2023-08-24T11:34:33;11.23;;;6.60;;
78027;SDS011;67235;45.638;11.714;2023-08-24T11:37:01;9.30;;;6.63;;
78027;SDS011;67235;45.638;11.714;2023-08-24T11:39:27;9.95;;;6.35;;
78027;SDS011;67235;45.638;11.714;2023-08-24T11:41:59;9.63;;;7.05;;
78027;SDS011;67235;45.638;11.714;2023-08-24T11:44:26;10.10;;;6.83;;
78027;SDS011;67235;45.638;11.714;2023-08-24T11:46:53;8.73;;;6.53;;
78027;SDS011;67235;45.638;11.714;2023-08-24T11:49:21;9.15;;;6.70;;
78027;SDS011;67235;45.638;11.714;2023-08-24T11:51:47;9.07;;;6.38;;
78027;SDS011;67235;45.638;11.714;2023-08-24T11:54:16;8.70;;;5.80;;
78027;SDS011;67235;45.638;11.714;2023-08-24T11:56:43;9.43;;;6.10;;
78027;SDS011;67235;45.638;11.714;2023-08-24T11:59:14;8.07;;;6.18;;
78027;SDS011;67235;45.638;11.714;2023-08-24T12:01:41;10.00;;;6.20;;
78027;SDS011;67235;45.638;11.714;2023-08-24T12:04:08;9.52;;;6.40;;
78027;SDS011;67235;45.638;11.714;2023-08-24T12:06:34;9.05;;;6.10;;
78027;SDS011;67235;45.638;11.714;2023-08-24T12:09:00;9.80;;;5.53;;
78027;SDS011;67235;45.638;11.714;2023-08-24T12:11:29;7.47;;;5.70;;
78027;SDS011;67235;45.638;11.714;2023-08-24T12:14:01;7.93;;;5.55;;
78027;SDS011;67235;45.638;11.714;2023-08-24T12:16:30;8.07;;;6.13;;
78027;SDS011;67235;45.638;11.714;2023-08-24T12:18:57;8.80;;;6.45;;
78027;SDS011;67235;45.638;11.714;2023-08-24T12:21:25;8.57;;;6.03;;
78027;SDS011;67235;45.638;11.714;2023-08-24T12:23:59;8.68;;;6.10;;
78027;SDS011;67235;45.638;11.714;2023-08-24T12:26:31;9.40;;;6.47;;
78027;SDS011;67235;45.638;11.714;2023-08-24T12:29:07;9.27;;;6.22;;
78027;SDS011;67235;45.638;11.714;2023-08-24T12:31:34;9.00;;;6.53;;
78027;SDS011;67235;45.638;11.714;2023-08-24T12:34:01;10.27;;;6.00;;
78027;SDS011;67235;45.638;11.714;2023-08-24T12:36:29;8.65;;;6.10;;
78027;SDS011;67235;45.638;11.714;2023-08-24T12:38:58;9.57;;;6.05;;
78027;SDS011;67235;45.638;11.714;2023-08-24T12:41:24;8.57;;;6.32;;
78027;SDS011;67235;45.638;11.714;2023-08-24T12:43:51;8.73;;;6.37;;
78027;SDS011;67235;45.638;11.714;2023-08-24T12:46:17;10.85;;;6.65;;
78027;SDS011;67235;45.638;11.714;2023-08-24T12:48:43;9.10;;;5.93;;
78027;SDS011;67235;45.638;11.714;2023-08-24T12:51:09;10.05;;;6.10;;
78027;SDS011;67235;45.638;11.714;2023-08-24T12:53:35;9.43;;;6.53;;
78027;SDS011;67235;45.638;11.714;2023-08-24T12:56:01;11.35;;;6.20;;
78027;SDS011;67235;45.638;11.714;2023-08-24T12:58:27;8.07;;;6.00;;
78027;SDS011;67235;45.638;11.714;2023-08-24T13:00:53;9.07;;;6.22;;
78027;SDS011;67235;45.638;11.714;2023-08-24T13:03:19;9.03;;;6.37;;
78027;SDS011;67235;45.638;11.714;2023-08-24T13:05:45;9.10;;;6.32;;
78027;SDS011;67235;45.638;11.714;2023-08-24T13:08:12;8.20;;;6.13;;
78027;SDS011;67235;45.638;11.714;2023-08-24T13:10:38;9.75;;;6.35;;
78027;SDS011;67235;45.638;11.714;2023-08-24T13:13:04;8.73;;;6.10;;
78027;SDS011;67235;45.638;11.714;2023-08-24T13:15:30;9.65;;;6.10;;
78027;SDS011;67235;45.638;11.714;2023-08-24T13:17:56;8.57;;;6.38;;
78027;SDS011;67235;45.638;11.714;2023-08-24T13:20:23;9.87;;;6.20;;
78027;SDS011;67235;45.638;11.714;2023-08-24T13:22:49;8.77;;;5.80;;
78027;SDS011;67235;45.638;11.714;2023-08-24T13:25:15;8.63;;;6.15;;
78027;SDS011;67235;45.638;11.714;2023-08-24T13:27:41;9.38;;;6.15;;
78027;SDS011;67235;45.638;11.714;2023-08-24T13:30:07;8.17;;;6.27;;
78027;SDS011;67235;45.638;11.714;2023-08-24T13:32:33;11.98;;;6.40;;
78027;SDS011;67235;45.638;11.714;2023-08-24T13:35:00;8.25;;;6.07;;
78027;SDS011;67235;45.638;11.714;2023-08-24T13:37:26;8.80;;;5.97;;
78027;SDS011;67235;45.638;11.714;2023-08-24T13:39:52;8.93;;;5.90;;
78027;SDS011;67235;45.638;11.714;2023-08-24T13:42:18;7.63;;;5.40;;
78027;SDS011;67235;45.638;11.714;2023-08-24T13:44:44;8.23;;;5.88;;
78027;SDS011;67235;45.638;11.714;2023-08-24T13:47:11;8.27;;;6.05;;
78027;SDS011;67235;45.638;11.714;2023-08-24T13:49:37;9.23;;;6.00;;
78027;SDS011;67235;45.638;11.714;2023-08-24T13:52:03;8.90;;;5.53;;
78027;SDS011;67235;45.638;11.714;2023-08-24T13:54:29;8.88;;;5.75;;
78027;SDS011;67235;45.638;11.714;2023-08-24T13:56:55;10.18;;;5.88;;
78027;SDS011;67235;45.638;11.714;2023-08-24T13:59:21;10.23;;;6.37;;
78027;SDS011;67235;45.638;11.714;2023-08-24T14:01:47;8.90;;;5.25;;
78027;SDS011;67235;45.638;11.714;2023-08-24T14:04:13;9.05;;;5.55;;
78027;SDS011;67235;45.638;11.714;2023-08-24T14:06:39;8.13;;;5.30;;
78027;SDS011;67235;45.638;11.714;2023-08-24T14:09:05;9.07;;;5.83;;
78027;SDS011;67235;45.638;11.714;2023-08-24T14:11:32;9.27;;;5.53;;
78027;SDS011;67235;45.638;11.714;2023-08-24T14:13:58;9.35;;;5.82;;
78027;SDS011;67235;45.638;11.714;2023-08-24T14:16:24;9.05;;;5.95;;
78027;SDS011;67235;45.638;11.714;2023-08-24T14:18:51;7.43;;;5.22;;
78027;SDS011;67235;45.638;11.714;2023-08-24T14:21:17;9.47;;;5.50;;
78027;SDS011;67235;45.638;11.714;2023-08-24T14:23:45;9.10;;;5.40;;
78027;SDS011;67235;45.638;11.714;2023-08-24T14:26:11;9.40;;;5.43;;
78027;SDS011;67235;45.638;11.714;2023-08-24T14:31:14;8.43;;;5.70;;
78027;SDS011;67235;45.638;11.714;2023-08-24T14:33:41;8.80;;;5.13;;
78027;SDS011;67235;45.638;11.714;2023-08-24T14:36:07;9.10;;;5.93;;